createdAt,value
2022-12-26T00:01:35.336Z,100634.00
2022-12-26T00:04:04.671Z,100639.19
2022-12-26T00:06:34.239Z,100633.91
2022-12-26T00:09:04.986Z,100646.94
2022-12-26T00:11:34.353Z,100642.31
2022-12-26T00:14:05.883Z,100641.72
2022-12-26T00:16:36.156Z,100635.38
2022-12-26T00:19:05.772Z,100642.63
2022-12-26T00:21:34.803Z,100648.88
2022-12-26T00:24:03.832Z,100642.47
2022-12-26T00:26:35.808Z,100629.22
2022-12-26T00:29:04.857Z,100633.59
2022-12-26T00:31:36.312Z,100642.38
2022-12-26T00:34:04.865Z,100643.41
2022-12-26T00:36:35.030Z,100649.97
2022-12-26T00:39:05.156Z,100643.59
2022-12-26T00:41:33.987Z,100632.81
2022-12-26T00:44:03.400Z,100634.84
2022-12-26T00:46:32.170Z,100630.72
2022-12-26T00:49:02.066Z,100640.06
2022-12-26T00:51:30.533Z,100645.47
2022-12-26T00:53:59.067Z,100644.97
2022-12-26T00:56:27.575Z,100656.47
2022-12-26T00:58:56.077Z,100663.41
2022-12-26T01:01:25.310Z,100663.91
2022-12-26T01:03:54.160Z,100676.47
2022-12-26T01:06:24.021Z,100677.78
2022-12-26T01:08:53.667Z,100677.31
2022-12-26T01:11:40.383Z,100682.94
2022-12-26T01:14:12.708Z,100683.00
2022-12-26T01:16:42.687Z,100680.59
2022-12-26T01:19:11.866Z,100670.94
2022-12-26T01:21:43.102Z,100667.50
2022-12-26T01:24:12.962Z,100689.34
2022-12-26T01:26:41.466Z,100675.09
2022-12-26T01:29:10.789Z,100682.69
2022-12-26T01:31:39.341Z,100688.50
2022-12-26T01:34:07.961Z,100697.63
2022-12-26T01:36:36.447Z,100698.44
2022-12-26T01:39:06.309Z,100700.06
2022-12-26T01:41:34.861Z,100697.34
2022-12-26T01:44:05.138Z,100700.28
2022-12-26T01:46:38.688Z,100698.25
2022-12-26T01:49:14.967Z,100696.47
2022-12-26T01:51:48.330Z,100697.91
2022-12-26T01:54:37.515Z,100696.78
2022-12-26T01:57:11.715Z,100703.38
2022-12-26T01:59:43.099Z,100685.28
2022-12-26T02:02:12.241Z,100687.69
2022-12-26T02:05:02.931Z,100687.84
2022-12-26T02:07:33.080Z,100691.13
2022-12-26T02:10:03.561Z,100707.53
2022-12-26T02:12:38.715Z,100709.78
2022-12-26T02:15:10.052Z,100717.84
2022-12-26T02:17:39.180Z,100713.94
2022-12-26T02:20:19.063Z,100712.31
2022-12-26T02:23:29.255Z,100710.53
2022-12-26T02:26:23.981Z,100717.22
2022-12-26T02:29:20.067Z,100702.75
2022-12-26T02:31:59.932Z,100723.47
2022-12-26T02:34:38.358Z,100720.50
2022-12-26T02:37:21.878Z,100730.31
2022-12-26T02:40:06.641Z,100725.69
2022-12-26T02:42:45.299Z,100749.97
2022-12-26T02:45:40.682Z,100743.06
2022-12-26T02:48:17.247Z,100726.59
2022-12-26T02:51:18.992Z,100740.97
2022-12-26T02:54:19.518Z,100747.09
2022-12-26T02:57:10.314Z,100742.06
2022-12-26T03:00:07.690Z,100751.06
2022-12-26T03:02:59.647Z,100747.81
2022-12-26T03:05:52.362Z,100746.06
2022-12-26T03:08:45.379Z,100745.78
2022-12-26T03:11:31.624Z,100743.91
2022-12-26T03:14:14.424Z,100749.47
2022-12-26T03:17:00.284Z,100740.53
2022-12-26T03:19:30.677Z,100724.94
2022-12-26T03:22:23.236Z,100724.53
2022-12-26T03:25:06.362Z,100735.69
2022-12-26T03:27:35.026Z,100740.84
2022-12-26T03:30:20.807Z,100745.50
2022-12-26T03:32:49.062Z,100747.66
2022-12-26T03:35:17.610Z,100757.34
2022-12-26T03:37:54.043Z,100762.66
2022-12-26T03:41:03.078Z,100762.75
2022-12-26T03:44:10.019Z,100753.16
2022-12-26T03:47:12.958Z,100751.03
2022-12-26T03:50:04.626Z,100735.28
2022-12-26T03:53:00.415Z,100741.00
2022-12-26T03:55:54.649Z,100742.34
2022-12-26T03:58:47.984Z,100746.66
2022-12-26T04:01:38.477Z,100755.81
2022-12-26T04:04:28.924Z,100760.06
2022-12-26T04:07:19.810Z,100763.56
2022-12-26T04:10:09.662Z,100765.25
2022-12-26T04:12:59.336Z,100761.16
2022-12-26T04:15:52.120Z,100759.72
2022-12-26T04:18:41.056Z,100769.13
2022-12-26T04:21:29.918Z,100776.44
2022-12-26T04:24:18.689Z,100782.53
2022-12-26T04:27:09.691Z,100790.94
2022-12-26T04:29:57.260Z,100780.03
2022-12-26T04:32:51.621Z,100770.50
2022-12-26T04:35:44.579Z,100771.28
2022-12-26T04:38:35.113Z,100767.97
2022-12-26T04:41:23.324Z,100769.34
2022-12-26T04:44:09.233Z,100777.78
2022-12-26T04:46:42.160Z,100782.47
2022-12-26T04:49:30.647Z,100788.78
2022-12-26T04:52:00.861Z,100784.03
2022-12-26T04:54:29.928Z,100787.50
2022-12-26T04:56:58.498Z,100779.97
2022-12-26T04:59:27.419Z,100779.03
2022-12-26T05:02:14.851Z,100788.53
2022-12-26T05:05:15.859Z,100791.88
2022-12-26T05:08:01.861Z,100796.66
2022-12-26T05:10:30.835Z,100784.06
2022-12-26T05:12:59.357Z,100787.28
2022-12-26T05:15:27.875Z,100790.25
2022-12-26T05:18:26.590Z,100780.28
2022-12-26T05:21:12.841Z,100788.59
2022-12-26T05:23:58.862Z,100785.47
2022-12-26T05:26:45.047Z,100798.84
2022-12-26T05:29:14.650Z,100802.34
2022-12-26T05:31:43.360Z,100797.13
2022-12-26T05:34:15.892Z,100803.97
2022-12-26T05:36:47.613Z,100816.56
2022-12-26T05:39:16.716Z,100809.56
2022-12-26T05:41:45.380Z,100807.16
2022-12-26T05:44:13.909Z,100810.19
2022-12-26T05:46:43.091Z,100809.19
2022-12-26T05:49:13.291Z,100810.97
2022-12-26T05:51:41.789Z,100816.03
2022-12-26T05:54:10.261Z,100821.44
2022-12-26T05:56:40.900Z,100825.91
2022-12-26T05:59:11.556Z,100820.13
2022-12-26T06:01:40.708Z,100797.94
2022-12-26T06:04:09.283Z,100780.78
2022-12-26T06:06:39.154Z,100784.56
2022-12-26T06:09:07.650Z,100788.50
2022-12-26T06:11:36.197Z,100796.19
2022-12-26T06:14:05.211Z,100786.06
2022-12-26T06:16:33.793Z,100775.00
2022-12-26T06:19:02.332Z,100786.44
2022-12-26T06:21:30.936Z,100795.22
2022-12-26T06:24:00.870Z,100801.19
2022-12-26T06:26:29.408Z,100801.94
2022-12-26T06:28:57.914Z,100795.50
2022-12-26T06:31:26.513Z,100799.91
2022-12-26T06:33:58.396Z,100801.94
2022-12-26T06:36:28.764Z,100793.81
2022-12-26T06:38:57.907Z,100795.28
2022-12-26T06:41:27.845Z,100797.13
2022-12-26T06:43:57.051Z,100785.72
2022-12-26T06:46:27.135Z,100801.59
2022-12-26T06:48:56.154Z,100797.28
2022-12-26T06:51:28.486Z,100801.66
2022-12-26T06:53:57.247Z,100810.50
2022-12-26T06:56:28.359Z,100816.84
2022-12-26T06:58:57.390Z,100811.19
2022-12-26T07:01:27.782Z,100812.88
2022-12-26T07:03:56.776Z,100807.66
2022-12-26T07:06:27.559Z,100826.75
2022-12-26T07:08:58.826Z,100826.66
2022-12-26T07:11:31.134Z,100834.47
2022-12-26T07:13:59.902Z,100840.50
2022-12-26T07:16:28.897Z,100847.59
2022-12-26T07:18:58.436Z,100838.06
2022-12-26T07:21:27.798Z,100846.06
2022-12-26T07:23:57.656Z,100849.72
2022-12-26T07:26:27.232Z,100849.13
2022-12-26T07:28:58.271Z,100851.75
2022-12-26T07:31:28.183Z,100853.88
2022-12-26T07:33:58.077Z,100852.09
2022-12-26T07:36:27.145Z,100850.56
2022-12-26T07:38:55.653Z,100858.75
2022-12-26T07:41:42.206Z,100868.66
2022-12-26T07:44:12.918Z,100884.59
2022-12-26T07:46:41.448Z,100869.34
2022-12-26T07:49:12.083Z,100882.56
2022-12-26T07:51:40.781Z,100894.09
2022-12-26T07:54:11.583Z,100882.75
2022-12-26T07:56:40.861Z,100880.03
2022-12-26T07:59:13.271Z,100868.00
2022-12-26T08:01:42.240Z,100878.69
2022-12-26T08:04:11.159Z,100877.16
2022-12-26T08:06:40.007Z,100882.19
2022-12-26T08:09:13.206Z,100877.78
2022-12-26T08:11:41.671Z,100873.19
2022-12-26T08:14:12.494Z,100883.63
2022-12-26T08:16:40.999Z,100875.81
2022-12-26T08:19:09.699Z,100876.19
2022-12-26T08:21:37.912Z,100866.44
2022-12-26T08:24:06.677Z,100869.34
2022-12-26T08:26:35.191Z,100869.44
2022-12-26T08:29:03.759Z,100870.22
2022-12-26T08:31:33.870Z,100871.63
2022-12-26T08:34:02.402Z,100874.56
2022-12-26T08:36:30.891Z,100886.91
2022-12-26T08:39:00.040Z,100880.63
2022-12-26T08:41:28.577Z,100885.53
2022-12-26T08:44:26.133Z,100894.38
2022-12-26T08:46:47.146Z,100901.53
2022-12-26T08:49:15.767Z,100910.81
2022-12-26T08:51:45.114Z,100899.66
2022-12-26T08:54:13.614Z,100904.09
2022-12-26T08:56:42.113Z,100913.75
2022-12-26T08:59:10.629Z,100910.41
2022-12-26T09:01:40.004Z,100913.91
2022-12-26T09:04:09.925Z,100911.47
2022-12-26T09:06:40.373Z,100912.16
2022-12-26T09:09:12.731Z,100906.22
2022-12-26T09:11:42.599Z,100909.13
2022-12-26T09:14:12.131Z,100914.25
2022-12-26T09:16:49.675Z,100916.81
2022-12-26T09:19:21.731Z,100924.78
2022-12-26T09:22:11.989Z,100923.22
2022-12-26T09:24:40.530Z,100931.25
2022-12-26T09:27:10.693Z,100928.25
2022-12-26T09:29:39.339Z,100931.44
2022-12-26T09:32:07.845Z,100936.50
2022-12-26T09:34:37.725Z,100938.22
2022-12-26T09:37:06.194Z,100944.81
2022-12-26T09:39:34.746Z,100945.41
2022-12-26T09:42:09.571Z,100946.50
2022-12-26T09:44:50.069Z,100953.06
2022-12-26T09:47:30.839Z,100964.44
2022-12-26T09:50:05.125Z,100959.69
2022-12-26T09:52:41.752Z,100967.66
2022-12-26T09:55:27.445Z,100971.34
2022-12-26T09:57:59.947Z,100977.03
2022-12-26T10:00:33.176Z,100978.69
2022-12-26T10:03:02.675Z,100970.22
2022-12-26T10:05:39.635Z,100962.84
2022-12-26T10:08:23.339Z,100975.00
2022-12-26T10:10:59.161Z,100976.41
2022-12-26T10:13:34.727Z,100968.53
2022-12-26T10:16:08.278Z,100966.34
2022-12-26T10:18:46.475Z,100963.59
2022-12-26T10:21:33.294Z,100961.81
2022-12-26T10:24:05.304Z,100949.59
2022-12-26T10:26:37.727Z,100951.56
2022-12-26T10:29:17.145Z,100947.50
2022-12-26T10:31:48.754Z,100946.53
2022-12-26T10:34:21.195Z,100947.97
2022-12-26T10:36:55.269Z,100943.34
2022-12-26T10:39:29.898Z,100951.34
2022-12-26T10:42:02.706Z,100952.16
2022-12-26T10:44:31.214Z,100960.72
2022-12-26T10:47:15.274Z,100957.88
2022-12-26T10:49:47.087Z,100970.19
2022-12-26T10:52:19.487Z,100963.19
2022-12-26T10:54:52.654Z,100964.22
2022-12-26T10:57:42.802Z,100968.00
2022-12-26T11:00:19.449Z,100962.66
2022-12-26T11:03:02.580Z,100961.38
2022-12-26T11:06:05.797Z,100952.28
2022-12-26T11:08:25.004Z,100951.91
2022-12-26T11:11:04.274Z,100960.06
2022-12-26T11:13:36.906Z,100953.91
2022-12-26T11:16:06.164Z,100958.34
2022-12-26T11:18:38.173Z,100953.78
2022-12-26T11:21:23.250Z,100953.00
2022-12-26T11:23:55.994Z,100957.16
2022-12-26T11:26:26.948Z,100953.78
2022-12-26T11:29:12.035Z,100961.72
2022-12-26T11:31:42.726Z,100961.44
2022-12-26T11:34:16.556Z,100963.94
2022-12-26T11:36:49.799Z,100971.41
2022-12-26T11:39:25.605Z,100968.00
2022-12-26T11:41:55.147Z,100971.13
2022-12-26T11:44:27.489Z,100975.03
2022-12-26T11:47:00.122Z,100971.22
2022-12-26T11:49:34.644Z,100970.94
2022-12-26T11:52:24.637Z,100966.66
2022-12-26T11:54:54.446Z,100963.84
2022-12-26T11:57:28.422Z,100960.59
2022-12-26T12:00:15.313Z,100967.22
2022-12-26T12:02:44.108Z,100968.91
2022-12-26T12:05:16.920Z,100971.16
2022-12-26T12:08:07.585Z,100969.31
2022-12-26T12:11:00.881Z,100963.22
2022-12-26T12:13:53.512Z,100967.25
2022-12-26T12:16:37.026Z,100974.25
2022-12-26T12:19:21.897Z,100997.75
2022-12-26T12:22:08.285Z,100972.47
2022-12-26T12:24:52.663Z,100978.22
2022-12-26T12:27:30.390Z,100957.50
2022-12-26T12:30:15.987Z,100964.00
2022-12-26T12:33:05.950Z,100972.41
2022-12-26T12:35:49.731Z,101000.56
2022-12-26T12:38:31.625Z,101027.69
2022-12-26T12:41:15.742Z,101015.28
2022-12-26T12:43:55.810Z,101029.69
2022-12-26T12:46:34.651Z,101013.16
2022-12-26T12:49:36.039Z,101022.66
2022-12-26T12:52:16.932Z,101034.59
2022-12-26T12:55:22.251Z,101030.88
2022-12-26T12:57:54.660Z,101039.72
2022-12-26T13:00:28.614Z,101050.34
2022-12-26T13:03:02.654Z,101041.28
2022-12-26T13:05:41.145Z,101051.44
2022-12-26T13:08:16.600Z,101045.56
2022-12-26T13:10:50.545Z,101057.88
2022-12-26T13:13:26.200Z,101049.69
2022-12-26T13:16:00.761Z,101060.22
2022-12-26T13:18:35.459Z,101046.06
2022-12-26T13:21:08.200Z,101049.19
2022-12-26T13:23:58.508Z,101065.34
2022-12-26T13:26:33.460Z,101059.56
2022-12-26T13:29:07.595Z,101068.06
2022-12-26T13:31:40.285Z,101077.03
2022-12-26T13:34:12.206Z,101083.31
2022-12-26T13:36:44.185Z,101081.25
2022-12-26T13:39:38.265Z,101079.56
2022-12-26T13:43:01.820Z,101082.59
2022-12-26T13:46:01.838Z,101077.75
2022-12-26T13:49:02.037Z,101095.94
2022-12-26T13:51:51.827Z,101091.28
2022-12-26T13:54:22.306Z,101096.75
2022-12-26T13:57:35.935Z,101099.91
2022-12-26T14:00:26.251Z,101103.44
2022-12-26T14:03:30.564Z,101102.06
2022-12-26T14:06:25.146Z,101112.09
2022-12-26T14:09:09.448Z,101107.69
2022-12-26T14:12:11.344Z,101113.09
2022-12-26T14:15:00.525Z,101107.38
2022-12-26T14:17:43.169Z,101112.06
2022-12-26T14:20:37.349Z,101133.38
2022-12-26T14:23:33.029Z,101128.78
2022-12-26T14:26:06.707Z,101138.03
2022-12-26T14:29:06.404Z,101148.66
2022-12-26T14:31:42.779Z,101160.81
2022-12-26T14:34:26.081Z,101158.34
2022-12-26T14:37:15.631Z,101166.53
2022-12-26T14:40:09.909Z,101169.44
2022-12-26T14:43:13.804Z,101168.44
2022-12-26T14:45:46.033Z,101179.25
2022-12-26T14:48:53.163Z,101183.00
2022-12-26T14:51:48.619Z,101192.66
2022-12-26T14:54:39.586Z,101191.78
2022-12-26T14:57:46.151Z,101193.56
2022-12-26T15:00:33.972Z,101198.44
2022-12-26T15:03:33.384Z,101201.97
2022-12-26T15:06:31.880Z,101217.09
2022-12-26T15:09:15.164Z,101212.91
2022-12-26T15:12:10.523Z,101223.84
2022-12-26T15:15:17.644Z,101232.47
2022-12-26T15:18:01.339Z,101232.25
2022-12-26T15:21:02.947Z,101227.63
2022-12-26T15:24:08.090Z,101226.84
2022-12-26T15:27:12.351Z,101243.31
2022-12-26T15:30:14.767Z,101237.75
2022-12-26T15:32:53.400Z,101244.47
2022-12-26T15:35:29.015Z,101258.53
2022-12-26T15:38:22.235Z,101259.53
2022-12-26T15:40:56.839Z,101265.28
2022-12-26T15:43:40.606Z,101280.34
2022-12-26T15:46:19.681Z,101287.56
2022-12-26T15:49:06.097Z,101291.34
2022-12-26T15:51:55.411Z,101283.94
2022-12-26T15:54:40.976Z,101289.00
2022-12-26T15:57:20.633Z,101300.38
2022-12-26T16:00:03.954Z,101309.41
2022-12-26T16:02:38.287Z,101319.13
2022-12-26T16:05:33.492Z,101310.06
2022-12-26T16:08:15.041Z,101316.31
2022-12-26T16:10:44.197Z,101328.47
2022-12-26T16:13:22.904Z,101324.28
2022-12-26T16:15:54.050Z,101328.31
2022-12-26T16:18:27.434Z,101337.22
2022-12-26T16:21:17.403Z,101344.06
2022-12-26T16:23:47.638Z,101346.06
2022-12-26T16:26:22.919Z,101343.31
2022-12-26T16:28:51.703Z,101358.63
2022-12-26T16:31:23.230Z,101352.53
2022-12-26T16:33:53.585Z,101351.31
2022-12-26T16:36:25.327Z,101369.13
2022-12-26T16:38:55.164Z,101376.72
2022-12-26T16:41:25.181Z,101374.44
2022-12-26T16:43:55.121Z,101376.84
2022-12-26T16:46:27.266Z,101389.47
2022-12-26T16:48:58.957Z,101388.53
2022-12-26T16:51:39.693Z,101405.50
2022-12-26T16:54:25.427Z,101384.94
2022-12-26T16:56:59.381Z,101396.44
2022-12-26T16:59:35.981Z,101403.66
2022-12-26T17:02:04.838Z,101402.59
2022-12-26T17:04:33.477Z,101408.78
2022-12-26T17:07:06.561Z,101410.38
2022-12-26T17:09:44.773Z,101416.94
2022-12-26T17:12:21.996Z,101419.06
2022-12-26T17:14:51.570Z,101418.88
2022-12-26T17:17:38.837Z,101429.44
2022-12-26T17:20:39.196Z,101437.38
2022-12-26T17:23:38.916Z,101434.28
2022-12-26T17:26:20.573Z,101443.66
2022-12-26T17:28:49.158Z,101443.91
2022-12-26T17:31:24.655Z,101454.31
2022-12-26T17:33:56.972Z,101455.13
2022-12-26T17:37:17.199Z,101449.22
2022-12-26T17:39:24.338Z,101466.59
2022-12-26T17:41:54.745Z,101458.66
2022-12-26T17:44:37.254Z,101454.47
2022-12-26T17:47:19.409Z,101460.38
2022-12-26T17:49:48.788Z,101461.84
2022-12-26T17:52:20.690Z,101469.88
2022-12-26T17:54:51.799Z,101463.16
2022-12-26T17:57:23.050Z,101475.38
2022-12-26T17:59:52.504Z,101481.28
2022-12-26T18:02:22.211Z,101489.38
2022-12-26T18:04:51.109Z,101491.00
2022-12-26T18:07:30.307Z,101496.94
2022-12-26T18:10:01.317Z,101505.53
2022-12-26T18:12:30.342Z,101504.84
2022-12-26T18:15:02.142Z,101504.97
2022-12-26T18:17:34.247Z,101495.44
2022-12-26T18:20:03.123Z,101513.50
2022-12-26T18:22:31.676Z,101515.88
2022-12-26T18:25:01.509Z,101526.66
2022-12-26T18:27:32.575Z,101519.94
2022-12-26T18:30:01.905Z,101531.72
2022-12-26T18:32:32.870Z,101538.19
2022-12-26T18:35:02.091Z,101552.19
2022-12-26T18:37:31.756Z,101548.97
2022-12-26T18:40:02.425Z,101554.72
2022-12-26T18:42:30.985Z,101556.19
2022-12-26T18:44:59.533Z,101559.78
2022-12-26T18:47:28.059Z,101568.94
2022-12-26T18:49:56.548Z,101570.78
2022-12-26T18:52:25.041Z,101568.66
2022-12-26T18:54:53.510Z,101581.88
2022-12-26T18:57:23.363Z,101583.09
2022-12-26T18:59:51.889Z,101587.59
2022-12-26T19:02:21.515Z,101593.94
2022-12-26T19:04:50.893Z,101595.25
2022-12-26T19:07:21.139Z,101599.91
2022-12-26T19:09:51.408Z,101597.84
2022-12-26T19:12:20.688Z,101596.56
2022-12-26T19:14:50.868Z,101594.50
2022-12-26T19:17:19.720Z,101603.81
2022-12-26T19:19:49.487Z,101609.97
2022-12-26T19:22:18.101Z,101625.41
2022-12-26T19:24:46.933Z,101627.19
2022-12-26T19:27:15.417Z,101624.13
2022-12-26T19:29:43.895Z,101631.78
2022-12-26T19:32:13.763Z,101632.41
2022-12-26T19:34:41.918Z,101629.81
2022-12-26T19:37:10.462Z,101638.75
2022-12-26T19:39:38.919Z,101635.78
2022-12-26T19:42:07.252Z,101655.03
2022-12-26T19:44:35.422Z,101646.41
2022-12-26T19:47:11.725Z,101651.97
2022-12-26T19:49:42.439Z,101662.06
2022-12-26T19:52:11.674Z,101657.69
2022-12-26T19:54:40.425Z,101659.38
2022-12-26T19:57:08.778Z,101656.41
2022-12-26T19:59:37.394Z,101669.34
2022-12-26T20:02:05.905Z,101664.69
2022-12-26T20:04:34.208Z,101673.00
2022-12-26T20:07:03.776Z,101678.91
2022-12-26T20:09:32.152Z,101677.00
2022-12-26T20:12:01.605Z,101676.34
2022-12-26T20:14:30.068Z,101690.88
2022-12-26T20:17:08.211Z,101694.56
2022-12-26T20:19:37.695Z,101689.41
2022-12-26T20:22:08.261Z,101694.75
2022-12-26T20:24:36.709Z,101698.59
2022-12-26T20:27:05.249Z,101704.19
2022-12-26T20:29:33.771Z,101702.22
2022-12-26T20:32:02.360Z,101698.84
2022-12-26T20:34:30.820Z,101707.31
2022-12-26T20:36:59.307Z,101705.38
2022-12-26T20:39:29.177Z,101712.81
2022-12-26T20:41:57.365Z,101709.28
2022-12-26T20:44:25.572Z,101709.44
2022-12-26T20:46:54.026Z,101713.59
2022-12-26T20:49:22.340Z,101716.91
2022-12-26T20:51:50.592Z,101717.56
2022-12-26T20:54:18.913Z,101716.84
2022-12-26T20:56:48.472Z,101717.72
2022-12-26T20:59:16.732Z,101722.69
2022-12-26T21:01:45.536Z,101718.38
2022-12-26T21:04:19.665Z,101727.50
2022-12-26T21:06:50.371Z,101720.44
2022-12-26T21:09:18.653Z,101714.50
2022-12-26T21:11:48.334Z,101728.97
2022-12-26T21:14:20.681Z,101736.50
2022-12-26T21:16:52.400Z,101733.72
2022-12-26T21:19:22.778Z,101742.22
2022-12-26T21:21:56.469Z,101744.63
2022-12-26T21:24:28.481Z,101745.16
2022-12-26T21:26:58.396Z,101742.94
2022-12-26T21:29:29.989Z,101742.53
2022-12-26T21:31:59.678Z,101744.97
2022-12-26T21:34:32.494Z,101740.25
2022-12-26T21:37:19.083Z,101748.03
2022-12-26T21:39:49.531Z,101747.91
2022-12-26T21:42:19.281Z,101747.84
2022-12-26T21:44:47.467Z,101745.31
2022-12-26T21:47:15.680Z,101733.44
2022-12-26T21:49:43.927Z,101747.59
2022-12-26T21:52:12.319Z,101753.03
2022-12-26T21:54:58.190Z,101757.09
2022-12-26T21:57:27.931Z,101754.16
2022-12-26T21:59:59.469Z,101754.97
2022-12-26T22:02:47.721Z,101767.50
2022-12-26T22:05:16.501Z,101766.72
2022-12-26T22:07:44.768Z,101774.13
2022-12-26T22:10:34.552Z,101781.41
2022-12-26T22:13:05.528Z,101780.50
2022-12-26T22:15:51.308Z,101784.03
2022-12-26T22:18:20.791Z,101783.38
2022-12-26T22:20:48.983Z,101789.44
2022-12-26T22:23:17.197Z,101798.00
2022-12-26T22:25:45.432Z,101787.09
2022-12-26T22:28:20.169Z,101795.44
2022-12-26T22:30:51.457Z,101798.13
2022-12-26T22:33:20.348Z,101786.50
2022-12-26T22:35:49.073Z,101792.19
2022-12-26T22:38:17.492Z,101805.28
2022-12-26T22:40:55.410Z,101811.59
2022-12-26T22:43:25.960Z,101814.72
2022-12-26T22:45:54.806Z,101810.09
2022-12-26T22:48:24.248Z,101814.50
2022-12-26T22:50:55.987Z,101820.69
2022-12-26T22:53:25.517Z,101818.69
2022-12-26T22:55:58.624Z,101821.53
2022-12-26T22:58:29.073Z,101815.69
2022-12-26T23:00:57.452Z,101820.28
2022-12-26T23:03:27.116Z,101825.91
2022-12-26T23:05:56.552Z,101827.84
2022-12-26T23:08:27.426Z,101824.56
2022-12-26T23:10:58.310Z,101823.34
2022-12-26T23:13:28.950Z,101827.09
2022-12-26T23:16:04.405Z,101834.56
2022-12-26T23:18:56.871Z,101833.34
2022-12-26T23:21:40.335Z,101842.00
2022-12-26T23:24:13.783Z,101842.84
2022-12-26T23:26:43.848Z,101838.94
2022-12-26T23:29:32.445Z,101844.22
2022-12-26T23:32:00.920Z,101847.88
2022-12-26T23:34:29.842Z,101846.19
2022-12-26T23:36:58.207Z,101850.19
2022-12-26T23:39:26.660Z,101850.94
2022-12-26T23:41:54.866Z,101846.09
2022-12-26T23:44:24.439Z,101848.25
2022-12-26T23:46:52.678Z,101852.47
2022-12-26T23:49:20.911Z,101858.06
2022-12-26T23:51:49.117Z,101849.47
2022-12-26T23:54:17.311Z,101850.88
2022-12-26T23:56:45.528Z,101854.78
2022-12-26T23:59:13.718Z,101848.19
